sensor_id;sensor_type;location;lat;lon;timestamp;temperature;humidity
45383;DHT22;42455;51.660;5.824;2023-04-15T00:01:19;10.2;72.5
45383;DHT22;42455;51.660;5.824;2023-04-15T00:06:25;10.2;72.5
45383;DHT22;42455;51.660;5.824;2023-04-15T00:11:31;10.2;72.5
45383;DHT22;42455;51.660;5.824;2023-04-15T00:16:38;10.1;72.5
45383;DHT22;42455;51.660;5.824;2023-04-15T00:21:44;10.1;73.0
45383;DHT22;42455;51.660;5.824;2023-04-15T00:26:50;10.0;73.0
45383;DHT22;42455;51.660;5.824;2023-04-15T00:31:56;10.0;73.0
45383;DHT22;42455;51.660;5.824;2023-04-15T00:37:02;10.0;73.5
45383;DHT22;42455;51.660;5.824;2023-04-15T00:42:09;9.9;73.5
45383;DHT22;42455;51.660;5.824;2023-04-15T00:47:15;9.9;73.5
45383;DHT22;42455;51.660;5.824;2023-04-15T00:52:21;9.9;73.5
45383;DHT22;42455;51.660;5.824;2023-04-15T00:57:27;9.8;74.0
45383;DHT22;42455;51.660;5.824;2023-04-15T01:02:34;9.8;74.0
45383;DHT22;42455;51.660;5.824;2023-04-15T01:07:40;9.8;74.0
45383;DHT22;42455;51.660;5.824;2023-04-15T01:12:46;9.7;74.0
45383;DHT22;42455;51.660;5.824;2023-04-15T01:17:52;9.7;74.0
45383;DHT22;42455;51.660;5.824;2023-04-15T01:22:59;9.6;74.0
45383;DHT22;42455;51.660;5.824;2023-04-15T01:28:04;9.5;74.0
45383;DHT22;42455;51.660;5.824;2023-04-15T01:33:10;9.4;74.0
45383;DHT22;42455;51.660;5.824;2023-04-15T01:38:16;9.4;74.5
45383;DHT22;42455;51.660;5.824;2023-04-15T01:43:22;9.3;74.5
45383;DHT22;42455;51.660;5.824;2023-04-15T01:48:27;9.2;74.5
45383;DHT22;42455;51.660;5.824;2023-04-15T01:53:33;9.2;75.0
45383;DHT22;42455;51.660;5.824;2023-04-15T01:58:40;9.1;75.5
45383;DHT22;42455;51.660;5.824;2023-04-15T02:03:46;9.0;75.5
45383;DHT22;42455;51.660;5.824;2023-04-15T02:08:52;9.0;76.5
45383;DHT22;42455;51.660;5.824;2023-04-15T02:13:58;9.0;76.5
45383;DHT22;42455;51.660;5.824;2023-04-15T02:19:05;9.0;77.0
45383;DHT22;42455;51.660;5.824;2023-04-15T02:24:11;8.9;77.0
45383;DHT22;42455;51.660;5.824;2023-04-15T02:34:23;8.9;77.0
45383;DHT22;42455;51.660;5.824;2023-04-15T02:39:29;8.9;77.5
45383;DHT22;42455;51.660;5.824;2023-04-15T02:44:36;8.9;77.5
45383;DHT22;42455;51.660;5.824;2023-04-15T02:49:42;8.9;77.5
45383;DHT22;42455;51.660;5.824;2023-04-15T02:54:48;8.8;78.0
45383;DHT22;42455;51.660;5.824;2023-04-15T02:59:54;8.8;78.0
45383;DHT22;42455;51.660;5.824;2023-04-15T03:05:00;8.8;78.5
45383;DHT22;42455;51.660;5.824;2023-04-15T03:10:07;8.8;78.5
45383;DHT22;42455;51.660;5.824;2023-04-15T03:15:14;8.8;78.5
45383;DHT22;42455;51.660;5.824;2023-04-15T03:20:19;8.7;79.0
45383;DHT22;42455;51.660;5.824;2023-04-15T03:25:25;8.7;79.0
45383;DHT22;42455;51.660;5.824;2023-04-15T03:30:31;8.7;79.5
45383;DHT22;42455;51.660;5.824;2023-04-15T03:35:38;8.6;79.5
45383;DHT22;42455;51.660;5.824;2023-04-15T03:40:45;8.6;79.5
45383;DHT22;42455;51.660;5.824;2023-04-15T03:45:49;8.6;79.5
45383;DHT22;42455;51.660;5.824;2023-04-15T03:50:55;8.5;80.0
45383;DHT22;42455;51.660;5.824;2023-04-15T03:56:02;8.5;80.5
45383;DHT22;42455;51.660;5.824;2023-04-15T04:01:08;8.5;80.5
45383;DHT22;42455;51.660;5.824;2023-04-15T04:06:14;8.4;80.5
45383;DHT22;42455;51.660;5.824;2023-04-15T04:11:20;8.4;80.5
45383;DHT22;42455;51.660;5.824;2023-04-15T04:16:26;8.3;80.5
45383;DHT22;42455;51.660;5.824;2023-04-15T04:21:32;8.2;80.5
45383;DHT22;42455;51.660;5.824;2023-04-15T04:26:39;8.2;80.5
45383;DHT22;42455;51.660;5.824;2023-04-15T04:31:45;8.1;80.5
45383;DHT22;42455;51.660;5.824;2023-04-15T04:36:51;8.0;80.5
45383;DHT22;42455;51.660;5.824;2023-04-15T04:41:57;7.9;81.0
45383;DHT22;42455;51.660;5.824;2023-04-15T04:47:03;0.0;0.0
45383;DHT22;42455;51.660;5.824;2023-04-15T04:52:10;7.9;81.0
45383;DHT22;42455;51.660;5.824;2023-04-15T04:57:16;7.9;81.5
45383;DHT22;42455;51.660;5.824;2023-04-15T05:02:22;7.9;81.5
45383;DHT22;42455;51.660;5.824;2023-04-15T05:07:28;7.8;82.0
45383;DHT22;42455;51.660;5.824;2023-04-15T05:12:35;7.8;82.0
45383;DHT22;42455;51.660;5.824;2023-04-15T05:17:41;7.8;82.0
45383;DHT22;42455;51.660;5.824;2023-04-15T05:22:47;7.8;82.0
45383;DHT22;42455;51.660;5.824;2023-04-15T05:32:58;7.8;82.5
45383;DHT22;42455;51.660;5.824;2023-04-15T05:38:04;7.9;83.0
45383;DHT22;42455;51.660;5.824;2023-04-15T05:43:10;7.9;83.0
45383;DHT22;42455;51.660;5.824;2023-04-15T05:48:15;8.0;83.5
45383;DHT22;42455;51.660;5.824;2023-04-15T05:53:21;8.1;83.5
45383;DHT22;42455;51.660;5.824;2023-04-15T05:58:27;8.2;83.5
45383;DHT22;42455;51.660;5.824;2023-04-15T06:03:33;8.3;84.0
45383;DHT22;42455;51.660;5.824;2023-04-15T06:08:38;8.4;84.0
45383;DHT22;42455;51.660;5.824;2023-04-15T06:13:44;8.5;84.5
45383;DHT22;42455;51.660;5.824;2023-04-15T06:18:50;8.6;84.5
45383;DHT22;42455;51.660;5.824;2023-04-15T06:23:57;8.8;84.5
45383;DHT22;42455;51.660;5.824;2023-04-15T06:29:03;9.0;84.5
45383;DHT22;42455;51.660;5.824;2023-04-15T06:34:09;9.1;84.5
45383;DHT22;42455;51.660;5.824;2023-04-15T06:39:15;9.2;84.5
45383;DHT22;42455;51.660;5.824;2023-04-15T06:44:21;9.3;85.0
45383;DHT22;42455;51.660;5.824;2023-04-15T06:49:28;9.5;85.0
45383;DHT22;42455;51.660;5.824;2023-04-15T06:54:34;9.7;85.0
45383;DHT22;42455;51.660;5.824;2023-04-15T06:59:40;9.9;85.0
45383;DHT22;42455;51.660;5.824;2023-04-15T07:04:46;10.2;85.5
45383;DHT22;42455;51.660;5.824;2023-04-15T07:09:52;10.4;85.5
45383;DHT22;42455;51.660;5.824;2023-04-15T07:14:59;10.7;85.5
45383;DHT22;42455;51.660;5.824;2023-04-15T07:20:06;10.9;85.5
45383;DHT22;42455;51.660;5.824;2023-04-15T07:25:11;11.2;85.0
45383;DHT22;42455;51.660;5.824;2023-04-15T07:30:17;11.4;84.5
45383;DHT22;42455;51.660;5.824;2023-04-15T07:35:23;11.5;84.5
45383;DHT22;42455;51.660;5.824;2023-04-15T07:40:30;11.6;84.0
45383;DHT22;42455;51.660;5.824;2023-04-15T07:45:36;11.6;83.5
45383;DHT22;42455;51.660;5.824;2023-04-15T07:50:42;11.7;83.5
45383;DHT22;42455;51.660;5.824;2023-04-15T07:55:47;11.7;83.5
45383;DHT22;42455;51.660;5.824;2023-04-15T08:00:54;11.8;83.5
45383;DHT22;42455;51.660;5.824;2023-04-15T08:06:00;11.8;83.5
45383;DHT22;42455;51.660;5.824;2023-04-15T08:11:05;11.9;83.0
45383;DHT22;42455;51.660;5.824;2023-04-15T08:16:19;11.9;83.5
45383;DHT22;42455;51.660;5.824;2023-04-15T08:21:18;12.0;83.5
45383;DHT22;42455;51.660;5.824;2023-04-15T08:26:24;12.2;83.5
45383;DHT22;42455;51.660;5.824;2023-04-15T08:31:30;12.4;83.5
45383;DHT22;42455;51.660;5.824;2023-04-15T08:36:36;12.5;83.0
45383;DHT22;42455;51.660;5.824;2023-04-15T08:41:45;12.7;83.0
45383;DHT22;42455;51.660;5.824;2023-04-15T08:46:49;12.9;82.5
45383;DHT22;42455;51.660;5.824;2023-04-15T08:51:57;13.1;82.0
45383;DHT22;42455;51.660;5.824;2023-04-15T08:57:02;13.2;81.0
45383;DHT22;42455;51.660;5.824;2023-04-15T09:02:07;13.3;80.5
45383;DHT22;42455;51.660;5.824;2023-04-15T09:07:13;13.4;80.0
45383;DHT22;42455;51.660;5.824;2023-04-15T09:12:20;13.4;79.5
45383;DHT22;42455;51.660;5.824;2023-04-15T09:17:26;13.5;79.5
45383;DHT22;42455;51.660;5.824;2023-04-15T09:22:32;13.6;79.0
45383;DHT22;42455;51.660;5.824;2023-04-15T09:27:46;13.7;79.0
45383;DHT22;42455;51.660;5.824;2023-04-15T09:32:48;13.8;79.0
45383;DHT22;42455;51.660;5.824;2023-04-15T09:37:52;13.9;78.5
45383;DHT22;42455;51.660;5.824;2023-04-15T09:42:57;14.0;78.0
45383;DHT22;42455;51.660;5.824;2023-04-15T09:48:14;14.2;77.5
45383;DHT22;42455;51.660;5.824;2023-04-15T09:53:10;14.3;77.5
45383;DHT22;42455;51.660;5.824;2023-04-15T09:58:17;14.4;77.0
45383;DHT22;42455;51.660;5.824;2023-04-15T10:03:23;14.6;77.0
45383;DHT22;42455;51.660;5.824;2023-04-15T10:08:30;14.8;77.0
45383;DHT22;42455;51.660;5.824;2023-04-15T10:13:34;14.9;76.5
45383;DHT22;42455;51.660;5.824;2023-04-15T10:18:43;15.0;75.5
45383;DHT22;42455;51.660;5.824;2023-04-15T10:23:46;15.0;74.5
45383;DHT22;42455;51.660;5.824;2023-04-15T10:28:52;15.1;75.0
45383;DHT22;42455;51.660;5.824;2023-04-15T10:33:59;15.2;75.0
45383;DHT22;42455;51.660;5.824;2023-04-15T10:39:42;15.3;74.5
45383;DHT22;42455;51.660;5.824;2023-04-15T10:44:10;15.4;74.5
45383;DHT22;42455;51.660;5.824;2023-04-15T10:49:23;15.5;74.0
45383;DHT22;42455;51.660;5.824;2023-04-15T10:54:31;15.5;73.5
45383;DHT22;42455;51.660;5.824;2023-04-15T10:59:29;15.5;72.5
45383;DHT22;42455;51.660;5.824;2023-04-15T11:04:50;15.5;73.0
45383;DHT22;42455;51.660;5.824;2023-04-15T11:14:48;15.6;73.0
45383;DHT22;42455;51.660;5.824;2023-04-15T11:19:54;15.6;72.5
45383;DHT22;42455;51.660;5.824;2023-04-15T11:25:00;15.6;73.0
45383;DHT22;42455;51.660;5.824;2023-04-15T11:30:16;15.7;73.0
45383;DHT22;42455;51.660;5.824;2023-04-15T11:35:13;15.8;72.5
45383;DHT22;42455;51.660;5.824;2023-04-15T11:40:21;15.9;73.0
45383;DHT22;42455;51.660;5.824;2023-04-15T11:45:25;16.0;72.5
45383;DHT22;42455;51.660;5.824;2023-04-15T11:50:30;16.1;72.5
45383;DHT22;42455;51.660;5.824;2023-04-15T11:55:43;16.3;72.5
45383;DHT22;42455;51.660;5.824;2023-04-15T12:00:45;16.5;73.0
45383;DHT22;42455;51.660;5.824;2023-04-15T12:06:17;16.7;72.5
45383;DHT22;42455;51.660;5.824;2023-04-15T12:10:57;16.7;71.5
45383;DHT22;42455;51.660;5.824;2023-04-15T12:15:59;16.7;70.5
45383;DHT22;42455;51.660;5.824;2023-04-15T12:21:08;16.8;71.0
45383;DHT22;42455;51.660;5.824;2023-04-15T12:26:12;16.9;71.0
45383;DHT22;42455;51.660;5.824;2023-04-15T12:31:18;17.0;69.5
45383;DHT22;42455;51.660;5.824;2023-04-15T12:36:24;17.0;69.0
45383;DHT22;42455;51.660;5.824;2023-04-15T12:41:30;17.0;69.0
45383;DHT22;42455;51.660;5.824;2023-04-15T12:46:36;17.1;69.0
45383;DHT22;42455;51.660;5.824;2023-04-15T12:51:43;17.1;69.0
45383;DHT22;42455;51.660;5.824;2023-04-15T12:56:49;17.1;69.0
45383;DHT22;42455;51.660;5.824;2023-04-15T13:01:55;17.2;68.5
45383;DHT22;42455;51.660;5.824;2023-04-15T13:07:01;17.2;67.5
45383;DHT22;42455;51.660;5.824;2023-04-15T13:12:08;17.1;67.5
45383;DHT22;42455;51.660;5.824;2023-04-15T13:17:14;17.2;67.5
45383;DHT22;42455;51.660;5.824;2023-04-15T13:22:20;17.3;67.5
45383;DHT22;42455;51.660;5.824;2023-04-15T13:27:26;17.4;67.5
45383;DHT22;42455;51.660;5.824;2023-04-15T13:32:32;17.4;67.0
45383;DHT22;42455;51.660;5.824;2023-04-15T13:37:39;17.4;67.5
45383;DHT22;42455;51.660;5.824;2023-04-15T13:42:45;17.3;67.0
45383;DHT22;42455;51.660;5.824;2023-04-15T13:47:51;17.3;67.0
45383;DHT22;42455;51.660;5.824;2023-04-15T13:52:57;17.2;67.0
45383;DHT22;42455;51.660;5.824;2023-04-15T13:58:02;17.0;66.5
45383;DHT22;42455;51.660;5.824;2023-04-15T14:03:09;16.9;67.5
45383;DHT22;42455;51.660;5.824;2023-04-15T14:08:14;16.8;67.5
45383;DHT22;42455;51.660;5.824;2023-04-15T14:13:20;16.6;67.5
45383;DHT22;42455;51.660;5.824;2023-04-15T14:18:26;16.5;67.5
45383;DHT22;42455;51.660;5.824;2023-04-15T14:23:32;16.4;67.5
45383;DHT22;42455;51.660;5.824;2023-04-15T14:28:38;16.3;68.0
45383;DHT22;42455;51.660;5.824;2023-04-15T14:33:44;16.4;68.5
45383;DHT22;42455;51.660;5.824;2023-04-15T14:38:50;16.4;68.0
45383;DHT22;42455;51.660;5.824;2023-04-15T14:43:56;16.4;69.0
45383;DHT22;42455;51.660;5.824;2023-04-15T14:49:02;16.5;69.0
45383;DHT22;42455;51.660;5.824;2023-04-15T14:54:09;16.6;69.0
45383;DHT22;42455;51.660;5.824;2023-04-15T14:59:15;16.7;68.5
45383;DHT22;42455;51.660;5.824;2023-04-15T15:04:21;16.7;68.0
45383;DHT22;42455;51.660;5.824;2023-04-15T15:09:27;16.6;68.5
45383;DHT22;42455;51.660;5.824;2023-04-15T15:14:34;16.5;67.5
45383;DHT22;42455;51.660;5.824;2023-04-15T15:19:40;16.4;68.0
45383;DHT22;42455;51.660;5.824;2023-04-15T15:24:46;16.2;68.0
45383;DHT22;42455;51.660;5.824;2023-04-15T15:29:52;16.0;68.0
45383;DHT22;42455;51.660;5.824;2023-04-15T15:34:58;15.7;68.5
45383;DHT22;42455;51.660;5.824;2023-04-15T15:40:05;15.5;69.0
45383;DHT22;42455;51.660;5.824;2023-04-15T15:45:11;15.3;69.5
45383;DHT22;42455;51.660;5.824;2023-04-15T15:50:17;15.1;70.0
45383;DHT22;42455;51.660;5.824;2023-04-15T15:55:22;14.9;70.5
45383;DHT22;42455;51.660;5.824;2023-04-15T16:00:28;14.7;71.0
45383;DHT22;42455;51.660;5.824;2023-04-15T16:05:34;14.6;71.5
45383;DHT22;42455;51.660;5.824;2023-04-15T16:10:40;14.4;72.0
45383;DHT22;42455;51.660;5.824;2023-04-15T16:15:46;14.3;72.5
45383;DHT22;42455;51.660;5.824;2023-04-15T16:20:52;14.1;73.0
45383;DHT22;42455;51.660;5.824;2023-04-15T16:25:58;14.0;73.5
45383;DHT22;42455;51.660;5.824;2023-04-15T16:31:05;13.8;74.0
45383;DHT22;42455;51.660;5.824;2023-04-15T16:36:11;13.7;74.5
45383;DHT22;42455;51.660;5.824;2023-04-15T16:41:17;13.6;75.0
45383;DHT22;42455;51.660;5.824;2023-04-15T16:46:23;13.5;75.5
45383;DHT22;42455;51.660;5.824;2023-04-15T16:51:30;13.5;75.5
45383;DHT22;42455;51.660;5.824;2023-04-15T16:56:36;13.4;75.5
45383;DHT22;42455;51.660;5.824;2023-04-15T17:01:42;13.3;76.0
45383;DHT22;42455;51.660;5.824;2023-04-15T17:06:48;13.2;76.5
45383;DHT22;42455;51.660;5.824;2023-04-15T17:11:54;13.2;76.5
45383;DHT22;42455;51.660;5.824;2023-04-15T17:17:01;13.2;77.0
45383;DHT22;42455;51.660;5.824;2023-04-15T17:22:07;13.1;77.0
45383;DHT22;42455;51.660;5.824;2023-04-15T17:27:13;13.1;77.0
45383;DHT22;42455;51.660;5.824;2023-04-15T17:32:19;13.0;77.0
45383;DHT22;42455;51.660;5.824;2023-04-15T17:37:26;12.8;77.5
45383;DHT22;42455;51.660;5.824;2023-04-15T17:42:32;12.7;78.0
45383;DHT22;42455;51.660;5.824;2023-04-15T17:47:38;12.7;78.0
45383;DHT22;42455;51.660;5.824;2023-04-15T17:52:43;12.5;78.0
45383;DHT22;42455;51.660;5.824;2023-04-15T17:57:49;12.4;78.5
45383;DHT22;42455;51.660;5.824;2023-04-15T18:02:55;12.3;78.5
45383;DHT22;42455;51.660;5.824;2023-04-15T18:13:07;12.2;79.0
45383;DHT22;42455;51.660;5.824;2023-04-15T18:18:13;12.1;79.5
45383;DHT22;42455;51.660;5.824;2023-04-15T18:23:19;12.0;80.0
45383;DHT22;42455;51.660;5.824;2023-04-15T18:28:26;11.9;80.0
45383;DHT22;42455;51.660;5.824;2023-04-15T18:33:32;11.9;80.5
45383;DHT22;42455;51.660;5.824;2023-04-15T18:38:38;11.8;80.5
45383;DHT22;42455;51.660;5.824;2023-04-15T18:43:44;11.8;81.0
45383;DHT22;42455;51.660;5.824;2023-04-15T18:48:50;11.7;81.5
45383;DHT22;42455;51.660;5.824;2023-04-15T18:53:57;11.7;81.5
45383;DHT22;42455;51.660;5.824;2023-04-15T18:59:03;11.6;82.0
45383;DHT22;42455;51.660;5.824;2023-04-15T19:04:09;11.5;82.5
45383;DHT22;42455;51.660;5.824;2023-04-15T19:09:15;11.5;82.5
45383;DHT22;42455;51.660;5.824;2023-04-15T19:14:22;11.4;83.0
45383;DHT22;42455;51.660;5.824;2023-04-15T19:19:28;11.3;83.0
45383;DHT22;42455;51.660;5.824;2023-04-15T19:24:34;11.2;83.5
45383;DHT22;42455;51.660;5.824;2023-04-15T19:29:40;11.1;84.0
45383;DHT22;42455;51.660;5.824;2023-04-15T19:34:47;11.1;84.0
45383;DHT22;42455;51.660;5.824;2023-04-15T19:39:53;11.1;84.5
45383;DHT22;42455;51.660;5.824;2023-04-15T19:44:59;11.0;84.5
45383;DHT22;42455;51.660;5.824;2023-04-15T19:50:06;11.0;85.0
45383;DHT22;42455;51.660;5.824;2023-04-15T19:55:10;11.0;85.0
45383;DHT22;42455;51.660;5.824;2023-04-15T20:00:17;10.9;85.0
45383;DHT22;42455;51.660;5.824;2023-04-15T20:05:22;10.9;85.5
45383;DHT22;42455;51.660;5.824;2023-04-15T20:10:29;10.9;85.5
45383;DHT22;42455;51.660;5.824;2023-04-15T20:15:34;10.9;86.0
45383;DHT22;42455;51.660;5.824;2023-04-15T20:20:40;10.8;86.5
45383;DHT22;42455;51.660;5.824;2023-04-15T20:25:46;10.8;86.5
45383;DHT22;42455;51.660;5.824;2023-04-15T20:30:53;10.8;86.5
45383;DHT22;42455;51.660;5.824;2023-04-15T20:35:59;10.8;87.0
45383;DHT22;42455;51.660;5.824;2023-04-15T20:41:05;10.8;87.0
45383;DHT22;42455;51.660;5.824;2023-04-15T20:46:11;10.8;87.5
45383;DHT22;42455;51.660;5.824;2023-04-15T20:51:18;10.8;87.5
45383;DHT22;42455;51.660;5.824;2023-04-15T20:56:24;10.8;87.5
45383;DHT22;42455;51.660;5.824;2023-04-15T21:01:30;10.8;87.5
45383;DHT22;42455;51.660;5.824;2023-04-15T21:06:36;10.8;88.0
45383;DHT22;42455;51.660;5.824;2023-04-15T21:11:44;10.8;88.0
45383;DHT22;42455;51.660;5.824;2023-04-15T21:16:49;10.8;88.0
45383;DHT22;42455;51.660;5.824;2023-04-15T21:21:55;10.8;88.0
45383;DHT22;42455;51.660;5.824;2023-04-15T21:27:01;10.8;88.0
45383;DHT22;42455;51.660;5.824;2023-04-15T21:32:07;10.8;88.0
45383;DHT22;42455;51.660;5.824;2023-04-15T21:37:13;10.8;88.5
45383;DHT22;42455;51.660;5.824;2023-04-15T21:42:20;10.8;88.5
45383;DHT22;42455;51.660;5.824;2023-04-15T21:47:26;10.8;88.5
45383;DHT22;42455;51.660;5.824;2023-04-15T21:52:31;10.8;88.5
45383;DHT22;42455;51.660;5.824;2023-04-15T22:02:43;10.8;89.0
45383;DHT22;42455;51.660;5.824;2023-04-15T22:07:49;10.8;89.0
45383;DHT22;42455;51.660;5.824;2023-04-15T22:12:55;10.8;89.0
45383;DHT22;42455;51.660;5.824;2023-04-15T22:18:01;10.8;89.5
45383;DHT22;42455;51.660;5.824;2023-04-15T22:23:07;10.8;89.5
45383;DHT22;42455;51.660;5.824;2023-04-15T22:28:14;10.8;89.5
45383;DHT22;42455;51.660;5.824;2023-04-15T22:33:20;10.8;89.5
45383;DHT22;42455;51.660;5.824;2023-04-15T22:38:26;10.9;89.5
45383;DHT22;42455;51.660;5.824;2023-04-15T22:43:32;10.9;89.5
45383;DHT22;42455;51.660;5.824;2023-04-15T22:48:38;10.9;89.5
45383;DHT22;42455;51.660;5.824;2023-04-15T22:53:45;10.9;89.5
45383;DHT22;42455;51.660;5.824;2023-04-15T22:58:51;10.9;89.5
45383;DHT22;42455;51.660;5.824;2023-04-15T23:03:57;10.8;89.5
45383;DHT22;42455;51.660;5.824;2023-04-15T23:09:03;10.8;90.0
45383;DHT22;42455;51.660;5.824;2023-04-15T23:14:09;10.8;90.0
45383;DHT22;42455;51.660;5.824;2023-04-15T23:19:16;10.8;90.0
45383;DHT22;42455;51.660;5.824;2023-04-15T23:24:22;10.8;90.0
45383;DHT22;42455;51.660;5.824;2023-04-15T23:29:28;10.8;90.5
45383;DHT22;42455;51.660;5.824;2023-04-15T23:34:34;10.8;90.5
45383;DHT22;42455;51.660;5.824;2023-04-15T23:39:40;10.9;90.5
45383;DHT22;42455;51.660;5.824;2023-04-15T23:44:47;10.9;90.5
45383;DHT22;42455;51.660;5.824;2023-04-15T23:49:53;10.9;91.0
45383;DHT22;42455;51.660;5.824;2023-04-15T23:54:58;10.9;91.0
